sensor_id;sensor_type;location;lat;lon;timestamp;P1;durP1;ratioP1;P2;durP2;ratioP2
22040;SDS011;11184;52.444;13.578;2022-11-14T00:00:47;82.88;;;48.78;;
22040;SDS011;11184;52.444;13.578;2022-11-14T00:03:32;87.22;;;52.67;;
22040;SDS011;11184;52.444;13.578;2022-11-14T00:06:16;87.45;;;50.45;;
22040;SDS011;11184;52.444;13.578;2022-11-14T00:09:01;95.35;;;53.60;;
22040;SDS011;11184;52.444;13.578;2022-11-14T00:11:45;95.38;;;53.78;;
22040;SDS011;11184;52.444;13.578;2022-11-14T00:14:30;93.05;;;51.55;;
22040;SDS011;11184;52.444;13.578;2022-11-14T00:17:15;82.00;;;51.15;;
22040;SDS011;11184;52.444;13.578;2022-11-14T00:19:59;95.75;;;56.33;;
22040;SDS011;11184;52.444;13.578;2022-11-14T00:22:44;93.68;;;53.35;;
22040;SDS011;11184;52.444;13.578;2022-11-14T00:25:29;99.25;;;55.03;;
22040;SDS011;11184;52.444;13.578;2022-11-14T00:28:13;95.82;;;54.28;;
22040;SDS011;11184;52.444;13.578;2022-11-14T00:30:58;90.45;;;52.83;;
22040;SDS011;11184;52.444;13.578;2022-11-14T00:33:42;93.03;;;53.45;;
22040;SDS011;11184;52.444;13.578;2022-11-14T00:36:27;92.30;;;53.80;;
22040;SDS011;11184;52.444;13.578;2022-11-14T00:39:18;94.97;;;53.67;;
22040;SDS011;11184;52.444;13.578;2022-11-14T00:41:58;95.82;;;55.17;;
22040;SDS011;11184;52.444;13.578;2022-11-14T00:44:43;93.03;;;52.65;;
22040;SDS011;11184;52.444;13.578;2022-11-14T00:47:27;98.00;;;55.38;;
22040;SDS011;11184;52.444;13.578;2022-11-14T00:50:12;92.43;;;53.50;;
22040;SDS011;11184;52.444;13.578;2022-11-14T00:52:57;107.03;;;55.38;;
22040;SDS011;11184;52.444;13.578;2022-11-14T00:55:41;102.57;;;56.13;;
22040;SDS011;11184;52.444;13.578;2022-11-14T00:58:26;102.93;;;56.97;;
22040;SDS011;11184;52.444;13.578;2022-11-14T01:01:11;103.35;;;57.25;;
22040;SDS011;11184;52.444;13.578;2022-11-14T01:03:56;99.47;;;57.88;;
22040;SDS011;11184;52.444;13.578;2022-11-14T01:06:40;95.90;;;55.25;;
22040;SDS011;11184;52.444;13.578;2022-11-14T01:09:25;109.93;;;59.03;;
22040;SDS011;11184;52.444;13.578;2022-11-14T01:12:09;99.88;;;54.47;;
22040;SDS011;11184;52.444;13.578;2022-11-14T01:14:54;113.93;;;61.58;;
22040;SDS011;11184;52.444;13.578;2022-11-14T01:17:39;116.38;;;58.67;;
22040;SDS011;11184;52.444;13.578;2022-11-14T01:20:23;116.07;;;60.55;;
22040;SDS011;11184;52.444;13.578;2022-11-14T01:23:09;113.80;;;60.15;;
22040;SDS011;11184;52.444;13.578;2022-11-14T01:25:54;116.97;;;59.65;;
22040;SDS011;11184;52.444;13.578;2022-11-14T01:28:44;112.05;;;56.83;;
22040;SDS011;11184;52.444;13.578;2022-11-14T01:31:29;121.15;;;60.65;;
22040;SDS011;11184;52.444;13.578;2022-11-14T01:34:13;118.30;;;60.65;;
22040;SDS011;11184;52.444;13.578;2022-11-14T01:36:58;122.43;;;62.25;;
22040;SDS011;11184;52.444;13.578;2022-11-14T01:39:43;119.47;;;59.55;;
22040;SDS011;11184;52.444;13.578;2022-11-14T01:42:27;131.25;;;63.63;;
22040;SDS011;11184;52.444;13.578;2022-11-14T01:48:20;126.35;;;61.90;;
22040;SDS011;11184;52.444;13.578;2022-11-14T01:54:11;125.60;;;63.50;;
22040;SDS011;11184;52.444;13.578;2022-11-14T01:56:58;128.80;;;60.70;;
22040;SDS011;11184;52.444;13.578;2022-11-14T01:59:45;127.10;;;64.15;;
22040;SDS011;11184;52.444;13.578;2022-11-14T02:02:30;126.07;;;61.10;;
22040;SDS011;11184;52.444;13.578;2022-11-14T02:05:15;132.80;;;62.45;;
22040;SDS011;11184;52.444;13.578;2022-11-14T02:08:01;126.55;;;62.53;;
22040;SDS011;11184;52.444;13.578;2022-11-14T02:10:45;124.70;;;61.75;;
22040;SDS011;11184;52.444;13.578;2022-11-14T02:13:30;116.38;;;61.53;;
22040;SDS011;11184;52.444;13.578;2022-11-14T02:16:14;121.30;;;61.53;;
22040;SDS011;11184;52.444;13.578;2022-11-14T02:18:59;123.65;;;61.67;;
22040;SDS011;11184;52.444;13.578;2022-11-14T02:21:43;117.47;;;59.75;;
22040;SDS011;11184;52.444;13.578;2022-11-14T02:24:28;121.43;;;62.72;;
22040;SDS011;11184;52.444;13.578;2022-11-14T02:27:13;118.30;;;59.97;;
22040;SDS011;11184;52.444;13.578;2022-11-14T02:30:06;111.30;;;56.17;;
22040;SDS011;11184;52.444;13.578;2022-11-14T02:32:51;117.63;;;58.78;;
22040;SDS011;11184;52.444;13.578;2022-11-14T02:35:35;116.75;;;59.70;;
22040;SDS011;11184;52.444;13.578;2022-11-14T02:38:20;114.70;;;57.00;;
22040;SDS011;11184;52.444;13.578;2022-11-14T02:41:05;119.80;;;56.95;;
22040;SDS011;11184;52.444;13.578;2022-11-14T02:43:50;108.28;;;56.65;;
22040;SDS011;11184;52.444;13.578;2022-11-14T02:46:34;106.75;;;55.95;;
22040;SDS011;11184;52.444;13.578;2022-11-14T02:49:19;112.00;;;55.63;;
22040;SDS011;11184;52.444;13.578;2022-11-14T02:52:04;115.68;;;56.47;;
22040;SDS011;11184;52.444;13.578;2022-11-14T02:54:48;105.03;;;55.55;;
22040;SDS011;11184;52.444;13.578;2022-11-14T02:57:33;103.13;;;55.80;;
22040;SDS011;11184;52.444;13.578;2022-11-14T03:00:18;109.57;;;57.38;;
22040;SDS011;11184;52.444;13.578;2022-11-14T03:03:02;116.28;;;55.88;;
22040;SDS011;11184;52.444;13.578;2022-11-14T03:05:47;105.00;;;52.40;;
22040;SDS011;11184;52.444;13.578;2022-11-14T03:08:35;106.07;;;51.53;;
22040;SDS011;11184;52.444;13.578;2022-11-14T03:11:19;100.20;;;53.40;;
22040;SDS011;11184;52.444;13.578;2022-11-14T03:14:04;103.85;;;55.15;;
22040;SDS011;11184;52.444;13.578;2022-11-14T03:16:48;106.68;;;54.10;;
22040;SDS011;11184;52.444;13.578;2022-11-14T03:19:33;110.10;;;50.58;;
22040;SDS011;11184;52.444;13.578;2022-11-14T03:22:17;109.50;;;51.78;;
22040;SDS011;11184;52.444;13.578;2022-11-14T03:25:02;104.88;;;54.33;;
22040;SDS011;11184;52.444;13.578;2022-11-14T03:27:47;99.80;;;51.83;;
22040;SDS011;11184;52.444;13.578;2022-11-14T03:30:31;111.82;;;55.63;;
22040;SDS011;11184;52.444;13.578;2022-11-14T03:33:16;102.78;;;52.50;;
22040;SDS011;11184;52.444;13.578;2022-11-14T03:36:01;110.55;;;52.65;;
22040;SDS011;11184;52.444;13.578;2022-11-14T03:38:45;105.00;;;52.72;;
22040;SDS011;11184;52.444;13.578;2022-11-14T03:41:30;105.38;;;53.90;;
22040;SDS011;11184;52.444;13.578;2022-11-14T03:44:15;116.60;;;56.28;;
22040;SDS011;11184;52.444;13.578;2022-11-14T03:47:00;106.00;;;50.90;;
22040;SDS011;11184;52.444;13.578;2022-11-14T03:49:44;108.40;;;53.55;;
22040;SDS011;11184;52.444;13.578;2022-11-14T03:52:29;112.95;;;55.30;;
22040;SDS011;11184;52.444;13.578;2022-11-14T03:55:13;117.15;;;55.17;;
22040;SDS011;11184;52.444;13.578;2022-11-14T03:57:58;116.72;;;54.67;;
22040;SDS011;11184;52.444;13.578;2022-11-14T04:00:43;108.18;;;50.30;;
22040;SDS011;11184;52.444;13.578;2022-11-14T04:03:27;115.05;;;57.70;;
22040;SDS011;11184;52.444;13.578;2022-11-14T04:06:12;111.68;;;55.28;;
22040;SDS011;11184;52.444;13.578;2022-11-14T04:08:57;114.50;;;54.38;;
22040;SDS011;11184;52.444;13.578;2022-11-14T04:11:43;112.20;;;56.30;;
22040;SDS011;11184;52.444;13.578;2022-11-14T04:14:29;114.28;;;54.75;;
22040;SDS011;11184;52.444;13.578;2022-11-14T04:17:14;130.55;;;58.35;;
22040;SDS011;11184;52.444;13.578;2022-11-14T04:19:59;121.75;;;56.10;;
22040;SDS011;11184;52.444;13.578;2022-11-14T04:22:43;116.65;;;56.78;;
22040;SDS011;11184;52.444;13.578;2022-11-14T04:25:29;115.45;;;54.33;;
22040;SDS011;11184;52.444;13.578;2022-11-14T04:28:14;115.15;;;54.85;;
22040;SDS011;11184;52.444;13.578;2022-11-14T04:30:58;115.85;;;56.35;;
22040;SDS011;11184;52.444;13.578;2022-11-14T04:33:43;122.78;;;60.72;;
22040;SDS011;11184;52.444;13.578;2022-11-14T04:36:28;118.07;;;57.40;;
22040;SDS011;11184;52.444;13.578;2022-11-14T04:39:12;120.00;;;61.97;;
22040;SDS011;11184;52.444;13.578;2022-11-14T04:41:57;110.72;;;55.58;;
22040;SDS011;11184;52.444;13.578;2022-11-14T04:44:42;125.10;;;58.75;;
22040;SDS011;11184;52.444;13.578;2022-11-14T04:47:26;123.82;;;58.38;;
22040;SDS011;11184;52.444;13.578;2022-11-14T04:50:11;120.90;;;57.45;;
22040;SDS011;11184;52.444;13.578;2022-11-14T04:52:55;114.30;;;57.65;;
22040;SDS011;11184;52.444;13.578;2022-11-14T04:55:40;125.90;;;60.90;;
22040;SDS011;11184;52.444;13.578;2022-11-14T04:58:25;122.72;;;59.30;;
22040;SDS011;11184;52.444;13.578;2022-11-14T05:01:10;130.32;;;59.90;;
22040;SDS011;11184;52.444;13.578;2022-11-14T05:03:54;114.32;;;57.47;;
22040;SDS011;11184;52.444;13.578;2022-11-14T05:06:39;121.28;;;55.63;;
22040;SDS011;11184;52.444;13.578;2022-11-14T05:09:24;120.03;;;54.80;;
22040;SDS011;11184;52.444;13.578;2022-11-14T05:12:08;104.95;;;52.65;;
22040;SDS011;11184;52.444;13.578;2022-11-14T05:14:53;121.45;;;56.38;;
22040;SDS011;11184;52.444;13.578;2022-11-14T05:17:37;106.30;;;53.05;;
22040;SDS011;11184;52.444;13.578;2022-11-14T05:20:22;109.60;;;52.03;;
22040;SDS011;11184;52.444;13.578;2022-11-14T05:23:11;110.38;;;53.55;;
22040;SDS011;11184;52.444;13.578;2022-11-14T05:28:44;116.68;;;52.67;;
22040;SDS011;11184;52.444;13.578;2022-11-14T05:31:29;103.20;;;53.60;;
22040;SDS011;11184;52.444;13.578;2022-11-14T05:34:13;115.35;;;56.03;;
22040;SDS011;11184;52.444;13.578;2022-11-14T05:36:58;112.15;;;56.00;;
22040;SDS011;11184;52.444;13.578;2022-11-14T05:39:43;117.93;;;54.72;;
22040;SDS011;11184;52.444;13.578;2022-11-14T05:42:27;114.03;;;55.75;;
22040;SDS011;11184;52.444;13.578;2022-11-14T05:45:12;112.63;;;53.47;;
22040;SDS011;11184;52.444;13.578;2022-11-14T05:47:56;117.18;;;57.45;;
22040;SDS011;11184;52.444;13.578;2022-11-14T05:50:41;116.97;;;55.45;;
22040;SDS011;11184;52.444;13.578;2022-11-14T05:53:26;118.97;;;60.63;;
22040;SDS011;11184;52.444;13.578;2022-11-14T05:56:11;109.85;;;56.33;;
22040;SDS011;11184;52.444;13.578;2022-11-14T05:58:56;116.32;;;56.92;;
22040;SDS011;11184;52.444;13.578;2022-11-14T06:01:41;104.30;;;52.70;;
22040;SDS011;11184;52.444;13.578;2022-11-14T06:04:25;109.15;;;52.60;;
22040;SDS011;11184;52.444;13.578;2022-11-14T06:07:10;114.82;;;56.90;;
22040;SDS011;11184;52.444;13.578;2022-11-14T06:09:55;109.43;;;53.30;;
22040;SDS011;11184;52.444;13.578;2022-11-14T06:12:39;116.50;;;55.17;;
22040;SDS011;11184;52.444;13.578;2022-11-14T06:15:24;116.50;;;55.03;;
22040;SDS011;11184;52.444;13.578;2022-11-14T06:18:09;107.63;;;51.28;;
22040;SDS011;11184;52.444;13.578;2022-11-14T06:20:53;107.78;;;52.55;;
22040;SDS011;11184;52.444;13.578;2022-11-14T06:23:42;104.60;;;51.38;;
22040;SDS011;11184;52.444;13.578;2022-11-14T06:26:28;102.78;;;56.55;;
22040;SDS011;11184;52.444;13.578;2022-11-14T06:29:13;107.40;;;52.58;;
22040;SDS011;11184;52.444;13.578;2022-11-14T06:31:58;109.35;;;56.17;;
22040;SDS011;11184;52.444;13.578;2022-11-14T06:34:42;104.57;;;53.35;;
22040;SDS011;11184;52.444;13.578;2022-11-14T06:37:27;108.55;;;53.13;;
22040;SDS011;11184;52.444;13.578;2022-11-14T06:40:12;108.80;;;52.70;;
22040;SDS011;11184;52.444;13.578;2022-11-14T06:42:57;109.63;;;54.65;;
22040;SDS011;11184;52.444;13.578;2022-11-14T06:45:41;117.68;;;53.53;;
22040;SDS011;11184;52.444;13.578;2022-11-14T06:48:26;104.05;;;48.50;;
22040;SDS011;11184;52.444;13.578;2022-11-14T06:51:11;106.63;;;50.28;;
22040;SDS011;11184;52.444;13.578;2022-11-14T06:53:56;105.60;;;51.60;;
22040;SDS011;11184;52.444;13.578;2022-11-14T06:56:41;107.93;;;49.85;;
22040;SDS011;11184;52.444;13.578;2022-11-14T06:59:26;101.85;;;48.78;;
22040;SDS011;11184;52.444;13.578;2022-11-14T07:02:11;103.05;;;53.65;;
22040;SDS011;11184;52.444;13.578;2022-11-14T07:04:56;100.45;;;50.78;;
22040;SDS011;11184;52.444;13.578;2022-11-14T07:07:41;104.50;;;51.70;;
22040;SDS011;11184;52.444;13.578;2022-11-14T07:10:25;100.60;;;49.95;;
22040;SDS011;11184;52.444;13.578;2022-11-14T07:13:10;97.43;;;47.95;;
22040;SDS011;11184;52.444;13.578;2022-11-14T07:15:54;107.40;;;51.55;;
22040;SDS011;11184;52.444;13.578;2022-11-14T07:18:39;109.93;;;51.17;;
22040;SDS011;11184;52.444;13.578;2022-11-14T07:21:24;100.72;;;49.78;;
22040;SDS011;11184;52.444;13.578;2022-11-14T07:24:09;104.40;;;51.30;;
22040;SDS011;11184;52.444;13.578;2022-11-14T07:26:54;96.45;;;51.00;;
22040;SDS011;11184;52.444;13.578;2022-11-14T07:29:39;111.05;;;52.45;;
22040;SDS011;11184;52.444;13.578;2022-11-14T07:32:23;104.97;;;52.50;;
22040;SDS011;11184;52.444;13.578;2022-11-14T07:35:08;92.82;;;47.90;;
22040;SDS011;11184;52.444;13.578;2022-11-14T07:37:52;107.50;;;51.00;;
22040;SDS011;11184;52.444;13.578;2022-11-14T07:40:51;107.63;;;50.45;;
22040;SDS011;11184;52.444;13.578;2022-11-14T07:43:36;102.55;;;49.33;;
22040;SDS011;11184;52.444;13.578;2022-11-14T07:46:20;97.60;;;48.53;;
22040;SDS011;11184;52.444;13.578;2022-11-14T07:49:05;90.55;;;47.15;;
22040;SDS011;11184;52.444;13.578;2022-11-14T07:51:49;99.65;;;49.00;;
22040;SDS011;11184;52.444;13.578;2022-11-14T07:54:34;97.57;;;48.03;;
22040;SDS011;11184;52.444;13.578;2022-11-14T07:57:18;93.75;;;47.92;;
22040;SDS011;11184;52.444;13.578;2022-11-14T08:00:04;89.35;;;49.80;;
22040;SDS011;11184;52.444;13.578;2022-11-14T08:02:49;96.25;;;48.35;;
22040;SDS011;11184;52.444;13.578;2022-11-14T08:05:34;91.15;;;46.47;;
22040;SDS011;11184;52.444;13.578;2022-11-14T08:08:19;92.60;;;43.85;;
22040;SDS011;11184;52.444;13.578;2022-11-14T08:11:04;98.25;;;48.55;;
22040;SDS011;11184;52.444;13.578;2022-11-14T08:13:48;96.70;;;48.95;;
22040;SDS011;11184;52.444;13.578;2022-11-14T08:16:33;91.35;;;46.63;;
22040;SDS011;11184;52.444;13.578;2022-11-14T08:19:18;108.43;;;50.33;;
22040;SDS011;11184;52.444;13.578;2022-11-14T08:22:02;95.93;;;46.22;;
22040;SDS011;11184;52.444;13.578;2022-11-14T08:24:47;91.68;;;44.33;;
22040;SDS011;11184;52.444;13.578;2022-11-14T08:27:32;93.07;;;47.03;;
22040;SDS011;11184;52.444;13.578;2022-11-14T08:30:16;92.13;;;47.70;;
22040;SDS011;11184;52.444;13.578;2022-11-14T08:33:02;105.55;;;49.35;;
22040;SDS011;11184;52.444;13.578;2022-11-14T08:35:47;83.75;;;44.15;;
22040;SDS011;11184;52.444;13.578;2022-11-14T08:38:31;93.50;;;46.80;;
22040;SDS011;11184;52.444;13.578;2022-11-14T08:41:16;85.80;;;42.67;;
22040;SDS011;11184;52.444;13.578;2022-11-14T08:44:01;84.57;;;44.13;;
22040;SDS011;11184;52.444;13.578;2022-11-14T08:46:45;85.07;;;40.72;;
22040;SDS011;11184;52.444;13.578;2022-11-14T08:49:30;86.30;;;42.35;;
22040;SDS011;11184;52.444;13.578;2022-11-14T08:52:15;80.93;;;40.63;;
22040;SDS011;11184;52.444;13.578;2022-11-14T08:54:59;84.93;;;41.78;;
22040;SDS011;11184;52.444;13.578;2022-11-14T08:57:44;80.05;;;41.05;;
22040;SDS011;11184;52.444;13.578;2022-11-14T09:00:29;74.03;;;40.83;;
22040;SDS011;11184;52.444;13.578;2022-11-14T09:03:13;80.10;;;39.90;;
22040;SDS011;11184;52.444;13.578;2022-11-14T09:05:59;77.20;;;41.35;;
22040;SDS011;11184;52.444;13.578;2022-11-14T09:08:44;77.30;;;41.85;;
22040;SDS011;11184;52.444;13.578;2022-11-14T09:11:28;80.22;;;38.58;;
22040;SDS011;11184;52.444;13.578;2022-11-14T09:14:13;74.10;;;37.45;;
22040;SDS011;11184;52.444;13.578;2022-11-14T09:16:57;80.68;;;39.28;;
22040;SDS011;11184;52.444;13.578;2022-11-14T09:19:42;76.60;;;39.75;;
22040;SDS011;11184;52.444;13.578;2022-11-14T09:22:26;81.60;;;39.50;;
22040;SDS011;11184;52.444;13.578;2022-11-14T09:25:11;77.65;;;39.70;;
22040;SDS011;11184;52.444;13.578;2022-11-14T09:27:56;74.63;;;38.47;;
22040;SDS011;11184;52.444;13.578;2022-11-14T09:30:41;77.35;;;37.75;;
22040;SDS011;11184;52.444;13.578;2022-11-14T09:33:26;77.43;;;38.65;;
22040;SDS011;11184;52.444;13.578;2022-11-14T09:36:10;79.05;;;41.47;;
22040;SDS011;11184;52.444;13.578;2022-11-14T09:38:58;77.63;;;40.50;;
22040;SDS011;11184;52.444;13.578;2022-11-14T09:41:50;77.57;;;39.75;;
22040;SDS011;11184;52.444;13.578;2022-11-14T09:44:56;82.57;;;42.50;;
22040;SDS011;11184;52.444;13.578;2022-11-14T09:47:42;74.00;;;39.20;;
22040;SDS011;11184;52.444;13.578;2022-11-14T09:50:29;75.22;;;38.25;;
22040;SDS011;11184;52.444;13.578;2022-11-14T09:53:21;78.05;;;40.10;;
22040;SDS011;11184;52.444;13.578;2022-11-14T09:56:10;73.05;;;38.15;;
22040;SDS011;11184;52.444;13.578;2022-11-14T09:58:56;75.28;;;39.03;;
22040;SDS011;11184;52.444;13.578;2022-11-14T10:07:34;66.47;;;37.17;;
22040;SDS011;11184;52.444;13.578;2022-11-14T10:10:29;68.15;;;36.17;;
22040;SDS011;11184;52.444;13.578;2022-11-14T10:13:29;70.85;;;36.25;;
22040;SDS011;11184;52.444;13.578;2022-11-14T10:16:18;66.25;;;34.70;;
22040;SDS011;11184;52.444;13.578;2022-11-14T10:27:22;70.80;;;38.38;;
22040;SDS011;11184;52.444;13.578;2022-11-14T10:33:07;71.05;;;37.10;;
22040;SDS011;11184;52.444;13.578;2022-11-14T10:36:04;63.90;;;36.45;;
22040;SDS011;11184;52.444;13.578;2022-11-14T10:39:00;70.38;;;39.80;;
22040;SDS011;11184;52.444;13.578;2022-11-14T10:41:47;69.57;;;39.25;;
22040;SDS011;11184;52.444;13.578;2022-11-14T10:44:35;69.00;;;35.63;;
22040;SDS011;11184;52.444;13.578;2022-11-14T10:47:21;67.18;;;35.75;;
22040;SDS011;11184;52.444;13.578;2022-11-14T10:50:13;53.58;;;33.80;;
22040;SDS011;11184;52.444;13.578;2022-11-14T10:53:00;54.58;;;33.72;;
22040;SDS011;11184;52.444;13.578;2022-11-14T10:55:46;58.72;;;34.50;;
22040;SDS011;11184;52.444;13.578;2022-11-14T10:58:33;61.25;;;33.92;;
22040;SDS011;11184;52.444;13.578;2022-11-14T11:01:38;57.55;;;33.58;;
22040;SDS011;11184;52.444;13.578;2022-11-14T11:04:27;64.93;;;35.85;;
22040;SDS011;11184;52.444;13.578;2022-11-14T11:07:20;61.47;;;36.53;;
22040;SDS011;11184;52.444;13.578;2022-11-14T11:10:24;60.45;;;34.22;;
22040;SDS011;11184;52.444;13.578;2022-11-14T11:13:32;64.43;;;37.47;;
22040;SDS011;11184;52.444;13.578;2022-11-14T11:16:21;52.55;;;31.25;;
22040;SDS011;11184;52.444;13.578;2022-11-14T11:19:14;65.82;;;36.13;;
22040;SDS011;11184;52.444;13.578;2022-11-14T11:22:21;57.65;;;33.97;;
22040;SDS011;11184;52.444;13.578;2022-11-14T11:25:23;55.03;;;35.72;;
22040;SDS011;11184;52.444;13.578;2022-11-14T11:28:16;57.30;;;33.88;;
22040;SDS011;11184;52.444;13.578;2022-11-14T11:31:05;47.17;;;31.50;;
22040;SDS011;11184;52.444;13.578;2022-11-14T11:33:50;58.67;;;31.38;;
22040;SDS011;11184;52.444;13.578;2022-11-14T11:36:38;54.72;;;31.92;;
22040;SDS011;11184;52.444;13.578;2022-11-14T11:39:25;46.53;;;31.92;;
22040;SDS011;11184;52.444;13.578;2022-11-14T11:42:13;49.05;;;30.40;;
22040;SDS011;11184;52.444;13.578;2022-11-14T11:45:00;48.60;;;30.15;;
22040;SDS011;11184;52.444;13.578;2022-11-14T11:47:53;53.25;;;33.95;;
22040;SDS011;11184;52.444;13.578;2022-11-14T11:50:39;47.13;;;29.98;;
22040;SDS011;11184;52.444;13.578;2022-11-14T11:53:28;50.35;;;31.48;;
22040;SDS011;11184;52.444;13.578;2022-11-14T11:56:16;47.13;;;30.42;;
22040;SDS011;11184;52.444;13.578;2022-11-14T11:59:48;47.78;;;30.58;;
22040;SDS011;11184;52.444;13.578;2022-11-14T12:02:18;50.25;;;29.67;;
22040;SDS011;11184;52.444;13.578;2022-11-14T12:05:04;51.13;;;31.13;;
22040;SDS011;11184;52.444;13.578;2022-11-14T12:07:55;43.95;;;28.70;;
22040;SDS011;11184;52.444;13.578;2022-11-14T12:10:40;47.55;;;29.95;;
22040;SDS011;11184;52.444;13.578;2022-11-14T12:16:48;48.92;;;30.40;;
22040;SDS011;11184;52.444;13.578;2022-11-14T12:22:27;43.58;;;28.00;;
22040;SDS011;11184;52.444;13.578;2022-11-14T12:25:37;43.70;;;28.75;;
22040;SDS011;11184;52.444;13.578;2022-11-14T12:28:35;45.22;;;29.25;;
22040;SDS011;11184;52.444;13.578;2022-11-14T12:31:27;40.85;;;27.55;;
22040;SDS011;11184;52.444;13.578;2022-11-14T12:34:26;40.22;;;26.02;;
22040;SDS011;11184;52.444;13.578;2022-11-14T12:37:16;42.72;;;27.65;;
22040;SDS011;11184;52.444;13.578;2022-11-14T12:43:37;43.67;;;27.02;;
22040;SDS011;11184;52.444;13.578;2022-11-14T12:46:23;38.50;;;25.40;;
22040;SDS011;11184;52.444;13.578;2022-11-14T12:58:18;38.72;;;24.23;;
22040;SDS011;11184;52.444;13.578;2022-11-14T13:07:05;34.03;;;22.38;;
22040;SDS011;11184;52.444;13.578;2022-11-14T13:10:01;30.10;;;23.13;;
22040;SDS011;11184;52.444;13.578;2022-11-14T13:12:56;33.95;;;24.92;;
22040;SDS011;11184;52.444;13.578;2022-11-14T13:16:01;28.70;;;22.05;;
22040;SDS011;11184;52.444;13.578;2022-11-14T13:27:42;31.02;;;22.77;;
22040;SDS011;11184;52.444;13.578;2022-11-14T13:31:03;29.80;;;22.13;;
22040;SDS011;11184;52.444;13.578;2022-11-14T13:33:47;29.15;;;22.55;;
22040;SDS011;11184;52.444;13.578;2022-11-14T13:36:38;25.73;;;19.85;;
22040;SDS011;11184;52.444;13.578;2022-11-14T13:39:34;29.45;;;22.35;;
22040;SDS011;11184;52.444;13.578;2022-11-14T13:42:37;29.42;;;22.67;;
22040;SDS011;11184;52.444;13.578;2022-11-14T13:51:16;28.10;;;22.60;;
22040;SDS011;11184;52.444;13.578;2022-11-14T13:54:01;32.90;;;21.73;;
22040;SDS011;11184;52.444;13.578;2022-11-14T14:02:47;27.10;;;21.02;;
22040;SDS011;11184;52.444;13.578;2022-11-14T14:11:46;28.67;;;22.48;;
22040;SDS011;11184;52.444;13.578;2022-11-14T14:17:21;34.58;;;23.55;;
22040;SDS011;11184;52.444;13.578;2022-11-14T14:20:25;27.77;;;22.17;;
22040;SDS011;11184;52.444;13.578;2022-11-14T14:23:25;28.55;;;21.20;;
22040;SDS011;11184;52.444;13.578;2022-11-14T14:26:16;28.67;;;22.52;;
22040;SDS011;11184;52.444;13.578;2022-11-14T14:31:51;33.20;;;23.85;;
22040;SDS011;11184;52.444;13.578;2022-11-14T14:34:35;30.30;;;22.33;;
22040;SDS011;11184;52.444;13.578;2022-11-14T14:37:21;30.05;;;22.67;;
22040;SDS011;11184;52.444;13.578;2022-11-14T14:40:06;33.55;;;24.90;;
22040;SDS011;11184;52.444;13.578;2022-11-14T14:42:54;25.42;;;22.10;;
22040;SDS011;11184;52.444;13.578;2022-11-14T14:45:50;32.35;;;22.67;;
22040;SDS011;11184;52.444;13.578;2022-11-14T14:48:38;31.92;;;24.60;;
22040;SDS011;11184;52.444;13.578;2022-11-14T14:51:30;33.03;;;23.75;;
22040;SDS011;11184;52.444;13.578;2022-11-14T14:54:23;32.95;;;23.20;;
22040;SDS011;11184;52.444;13.578;2022-11-14T14:57:14;33.72;;;23.88;;
22040;SDS011;11184;52.444;13.578;2022-11-14T15:00:00;32.38;;;23.90;;
22040;SDS011;11184;52.444;13.578;2022-11-14T15:02:46;39.47;;;27.88;;
22040;SDS011;11184;52.444;13.578;2022-11-14T15:05:31;33.25;;;24.65;;
22040;SDS011;11184;52.444;13.578;2022-11-14T15:08:16;33.42;;;25.83;;
22040;SDS011;11184;52.444;13.578;2022-11-14T15:11:00;34.35;;;25.88;;
22040;SDS011;11184;52.444;13.578;2022-11-14T15:13:46;32.13;;;24.40;;
22040;SDS011;11184;52.444;13.578;2022-11-14T15:16:33;36.85;;;26.02;;
22040;SDS011;11184;52.444;13.578;2022-11-14T15:19:18;46.60;;;27.50;;
22040;SDS011;11184;52.444;13.578;2022-11-14T15:22:04;37.45;;;28.05;;
22040;SDS011;11184;52.444;13.578;2022-11-14T15:27:57;44.95;;;27.95;;
22040;SDS011;11184;52.444;13.578;2022-11-14T15:30:54;33.75;;;25.00;;
22040;SDS011;11184;52.444;13.578;2022-11-14T15:33:39;32.38;;;25.33;;
22040;SDS011;11184;52.444;13.578;2022-11-14T15:36:23;39.17;;;26.90;;
22040;SDS011;11184;52.444;13.578;2022-11-14T15:39:27;40.70;;;29.30;;
22040;SDS011;11184;52.444;13.578;2022-11-14T15:42:12;40.00;;;27.75;;
22040;SDS011;11184;52.444;13.578;2022-11-14T15:44:59;39.38;;;28.73;;
22040;SDS011;11184;52.444;13.578;2022-11-14T15:47:44;39.67;;;27.15;;
22040;SDS011;11184;52.444;13.578;2022-11-14T15:50:33;37.60;;;27.73;;
22040;SDS011;11184;52.444;13.578;2022-11-14T15:53:21;39.95;;;28.40;;
22040;SDS011;11184;52.444;13.578;2022-11-14T15:56:08;44.35;;;27.35;;
22040;SDS011;11184;52.444;13.578;2022-11-14T15:58:54;41.72;;;28.20;;
22040;SDS011;11184;52.444;13.578;2022-11-14T16:01:38;39.95;;;29.25;;
22040;SDS011;11184;52.444;13.578;2022-11-14T16:04:25;41.30;;;27.80;;
22040;SDS011;11184;52.444;13.578;2022-11-14T16:07:12;40.35;;;29.08;;
22040;SDS011;11184;52.444;13.578;2022-11-14T16:09:57;39.95;;;27.55;;
22040;SDS011;11184;52.444;13.578;2022-11-14T16:12:42;37.40;;;27.67;;
22040;SDS011;11184;52.444;13.578;2022-11-14T16:15:26;38.85;;;27.38;;
22040;SDS011;11184;52.444;13.578;2022-11-14T16:18:11;54.00;;;30.17;;
22040;SDS011;11184;52.444;13.578;2022-11-14T16:20:55;42.22;;;29.35;;
22040;SDS011;11184;52.444;13.578;2022-11-14T16:23:42;42.00;;;29.40;;
22040;SDS011;11184;52.444;13.578;2022-11-14T16:26:27;43.22;;;31.02;;
22040;SDS011;11184;52.444;13.578;2022-11-14T16:29:13;45.13;;;32.10;;
22040;SDS011;11184;52.444;13.578;2022-11-14T16:31:58;49.03;;;31.30;;
22040;SDS011;11184;52.444;13.578;2022-11-14T16:34:42;39.65;;;29.45;;
22040;SDS011;11184;52.444;13.578;2022-11-14T16:37:27;40.25;;;29.60;;
22040;SDS011;11184;52.444;13.578;2022-11-14T16:40:16;43.25;;;31.73;;
22040;SDS011;11184;52.444;13.578;2022-11-14T16:43:02;40.03;;;29.02;;
22040;SDS011;11184;52.444;13.578;2022-11-14T16:45:46;43.20;;;30.85;;
22040;SDS011;11184;52.444;13.578;2022-11-14T16:48:31;42.78;;;30.75;;
22040;SDS011;11184;52.444;13.578;2022-11-14T16:51:16;40.78;;;29.05;;
22040;SDS011;11184;52.444;13.578;2022-11-14T16:54:00;41.08;;;30.17;;
22040;SDS011;11184;52.444;13.578;2022-11-14T16:56:45;45.95;;;29.80;;
22040;SDS011;11184;52.444;13.578;2022-11-14T16:59:30;41.80;;;31.83;;
22040;SDS011;11184;52.444;13.578;2022-11-14T17:02:15;39.90;;;29.63;;
22040;SDS011;11184;52.444;13.578;2022-11-14T17:04:59;42.40;;;30.70;;
22040;SDS011;11184;52.444;13.578;2022-11-14T17:07:44;46.47;;;30.35;;
22040;SDS011;11184;52.444;13.578;2022-11-14T17:10:28;44.25;;;31.48;;
22040;SDS011;11184;52.444;13.578;2022-11-14T17:13:13;44.95;;;31.50;;
22040;SDS011;11184;52.444;13.578;2022-11-14T17:16:00;40.50;;;30.05;;
22040;SDS011;11184;52.444;13.578;2022-11-14T17:18:49;42.05;;;32.25;;
22040;SDS011;11184;52.444;13.578;2022-11-14T17:21:34;40.90;;;30.17;;